sensor_id;sensor_type;location;lat;lon;timestamp;P1;durP1;ratioP1;P2;durP2;ratioP2
78183;SDS011;67442;44.570;18.610;2024-03-06T00:00:20;131.85;;;53.55;;
78183;SDS011;67442;44.570;18.610;2024-03-06T00:02:48;146.05;;;58.47;;
78183;SDS011;67442;44.570;18.610;2024-03-06T00:05:15;164.30;;;66.00;;
78183;SDS011;67442;44.570;18.610;2024-03-06T00:07:43;246.75;;;91.85;;
78183;SDS011;67442;44.570;18.610;2024-03-06T00:10:09;159.23;;;62.78;;
78183;SDS011;67442;44.570;18.610;2024-03-06T00:12:37;130.95;;;56.78;;
78183;SDS011;67442;44.570;18.610;2024-03-06T00:15:04;131.15;;;53.53;;
78183;SDS011;67442;44.570;18.610;2024-03-06T00:17:33;164.20;;;63.13;;
78183;SDS011;67442;44.570;18.610;2024-03-06T00:20:00;203.70;;;74.63;;
78183;SDS011;67442;44.570;18.610;2024-03-06T00:22:30;170.43;;;67.25;;
78183;SDS011;67442;44.570;18.610;2024-03-06T00:24:58;145.15;;;58.40;;
78183;SDS011;67442;44.570;18.610;2024-03-06T00:27:25;141.55;;;59.20;;
78183;SDS011;67442;44.570;18.610;2024-03-06T00:29:53;148.50;;;60.53;;
78183;SDS011;67442;44.570;18.610;2024-03-06T00:32:20;179.90;;;68.55;;
78183;SDS011;67442;44.570;18.610;2024-03-06T00:34:49;184.45;;;71.15;;
78183;SDS011;67442;44.570;18.610;2024-03-06T00:37:16;125.60;;;52.00;;
78183;SDS011;67442;44.570;18.610;2024-03-06T00:39:45;118.93;;;45.20;;
78183;SDS011;67442;44.570;18.610;2024-03-06T00:42:12;121.22;;;47.08;;
78183;SDS011;67442;44.570;18.610;2024-03-06T00:44:40;133.90;;;52.25;;
78183;SDS011;67442;44.570;18.610;2024-03-06T00:47:07;132.85;;;58.88;;
78183;SDS011;67442;44.570;18.610;2024-03-06T00:49:35;136.63;;;60.58;;
78183;SDS011;67442;44.570;18.610;2024-03-06T00:52:03;109.68;;;45.42;;
78183;SDS011;67442;44.570;18.610;2024-03-06T00:54:30;121.07;;;51.40;;
78183;SDS011;67442;44.570;18.610;2024-03-06T00:56:58;128.30;;;56.22;;
78183;SDS011;67442;44.570;18.610;2024-03-06T00:59:25;122.47;;;52.08;;
78183;SDS011;67442;44.570;18.610;2024-03-06T01:01:52;131.93;;;55.80;;
78183;SDS011;67442;44.570;18.610;2024-03-06T01:04:23;136.13;;;55.80;;
78183;SDS011;67442;44.570;18.610;2024-03-06T01:06:50;123.85;;;50.67;;
78183;SDS011;67442;44.570;18.610;2024-03-06T01:09:17;125.32;;;53.83;;
78183;SDS011;67442;44.570;18.610;2024-03-06T01:11:45;106.82;;;47.15;;
78183;SDS011;67442;44.570;18.610;2024-03-06T01:14:13;108.38;;;48.03;;
78183;SDS011;67442;44.570;18.610;2024-03-06T01:16:42;123.15;;;53.95;;
78183;SDS011;67442;44.570;18.610;2024-03-06T01:19:09;121.35;;;51.92;;
78183;SDS011;67442;44.570;18.610;2024-03-06T01:21:38;138.82;;;55.80;;
78183;SDS011;67442;44.570;18.610;2024-03-06T01:24:04;173.32;;;68.25;;
78183;SDS011;67442;44.570;18.610;2024-03-06T01:26:31;137.30;;;55.17;;
78183;SDS011;67442;44.570;18.610;2024-03-06T01:28:59;126.07;;;53.22;;
78183;SDS011;67442;44.570;18.610;2024-03-06T01:31:26;159.88;;;70.95;;
78183;SDS011;67442;44.570;18.610;2024-03-06T01:33:54;155.70;;;59.65;;
78183;SDS011;67442;44.570;18.610;2024-03-06T01:36:21;136.38;;;55.85;;
78183;SDS011;67442;44.570;18.610;2024-03-06T01:38:48;137.02;;;59.50;;
78183;SDS011;67442;44.570;18.610;2024-03-06T01:41:15;134.63;;;59.70;;
78183;SDS011;67442;44.570;18.610;2024-03-06T01:43:42;145.05;;;58.47;;
78183;SDS011;67442;44.570;18.610;2024-03-06T01:46:10;134.70;;;55.85;;
78183;SDS011;67442;44.570;18.610;2024-03-06T01:48:37;105.75;;;44.28;;
78183;SDS011;67442;44.570;18.610;2024-03-06T01:51:04;108.07;;;48.58;;
78183;SDS011;67442;44.570;18.610;2024-03-06T01:53:32;113.25;;;47.10;;
78183;SDS011;67442;44.570;18.610;2024-03-06T01:56:00;113.18;;;45.88;;
78183;SDS011;67442;44.570;18.610;2024-03-06T01:58:27;100.82;;;42.53;;
78183;SDS011;67442;44.570;18.610;2024-03-06T02:00:56;120.75;;;48.42;;
78183;SDS011;67442;44.570;18.610;2024-03-06T02:03:23;96.40;;;42.35;;
78183;SDS011;67442;44.570;18.610;2024-03-06T02:05:52;108.78;;;44.67;;
78183;SDS011;67442;44.570;18.610;2024-03-06T02:08:20;112.22;;;43.47;;
78183;SDS011;67442;44.570;18.610;2024-03-06T02:10:47;123.10;;;51.05;;
78183;SDS011;67442;44.570;18.610;2024-03-06T02:13:15;116.70;;;47.03;;
78183;SDS011;67442;44.570;18.610;2024-03-06T02:15:46;136.80;;;57.92;;
78183;SDS011;67442;44.570;18.610;2024-03-06T02:18:13;133.50;;;52.83;;
78183;SDS011;67442;44.570;18.610;2024-03-06T02:20:41;113.68;;;46.50;;
78183;SDS011;67442;44.570;18.610;2024-03-06T02:23:08;109.05;;;43.50;;
78183;SDS011;67442;44.570;18.610;2024-03-06T02:25:35;97.85;;;40.22;;
78183;SDS011;67442;44.570;18.610;2024-03-06T02:28:02;97.40;;;42.20;;
78183;SDS011;67442;44.570;18.610;2024-03-06T02:30:31;100.68;;;41.72;;
78183;SDS011;67442;44.570;18.610;2024-03-06T02:33:02;108.55;;;42.75;;
78183;SDS011;67442;44.570;18.610;2024-03-06T02:35:30;101.03;;;42.70;;
78183;SDS011;67442;44.570;18.610;2024-03-06T02:38:01;113.22;;;46.05;;
78183;SDS011;67442;44.570;18.610;2024-03-06T02:40:28;101.75;;;42.05;;
78183;SDS011;67442;44.570;18.610;2024-03-06T02:42:56;100.03;;;43.03;;
78183;SDS011;67442;44.570;18.610;2024-03-06T02:45:23;99.63;;;40.55;;
78183;SDS011;67442;44.570;18.610;2024-03-06T02:47:49;103.20;;;43.03;;
78183;SDS011;67442;44.570;18.610;2024-03-06T02:50:17;105.82;;;44.67;;
78183;SDS011;67442;44.570;18.610;2024-03-06T02:52:46;132.43;;;51.47;;
78183;SDS011;67442;44.570;18.610;2024-03-06T02:55:14;115.45;;;47.47;;
78183;SDS011;67442;44.570;18.610;2024-03-06T02:57:41;110.35;;;45.15;;
78183;SDS011;67442;44.570;18.610;2024-03-06T03:00:08;109.60;;;43.03;;
78183;SDS011;67442;44.570;18.610;2024-03-06T03:02:39;103.68;;;44.22;;
78183;SDS011;67442;44.570;18.610;2024-03-06T03:05:06;120.15;;;49.40;;
78183;SDS011;67442;44.570;18.610;2024-03-06T03:07:34;110.38;;;45.38;;
78183;SDS011;67442;44.570;18.610;2024-03-06T03:10:01;104.78;;;43.90;;
78183;SDS011;67442;44.570;18.610;2024-03-06T03:12:30;102.35;;;42.15;;
78183;SDS011;67442;44.570;18.610;2024-03-06T03:14:57;93.40;;;39.88;;
78183;SDS011;67442;44.570;18.610;2024-03-06T03:17:24;99.35;;;42.10;;
78183;SDS011;67442;44.570;18.610;2024-03-06T03:19:51;96.68;;;40.75;;
78183;SDS011;67442;44.570;18.610;2024-03-06T03:22:19;114.82;;;45.72;;
78183;SDS011;67442;44.570;18.610;2024-03-06T03:24:46;109.90;;;45.38;;
78183;SDS011;67442;44.570;18.610;2024-03-06T03:27:13;110.07;;;46.20;;
78183;SDS011;67442;44.570;18.610;2024-03-06T03:29:40;104.22;;;43.55;;
78183;SDS011;67442;44.570;18.610;2024-03-06T03:32:08;107.78;;;43.58;;
78183;SDS011;67442;44.570;18.610;2024-03-06T03:34:34;110.30;;;45.67;;
78183;SDS011;67442;44.570;18.610;2024-03-06T03:37:01;99.40;;;40.97;;
78183;SDS011;67442;44.570;18.610;2024-03-06T03:39:29;105.80;;;43.00;;
78183;SDS011;67442;44.570;18.610;2024-03-06T03:41:56;89.03;;;39.30;;
78183;SDS011;67442;44.570;18.610;2024-03-06T03:44:23;117.05;;;47.00;;
78183;SDS011;67442;44.570;18.610;2024-03-06T03:46:51;110.75;;;45.60;;
78183;SDS011;67442;44.570;18.610;2024-03-06T03:49:18;97.07;;;38.33;;
78183;SDS011;67442;44.570;18.610;2024-03-06T03:51:46;92.18;;;40.85;;
78183;SDS011;67442;44.570;18.610;2024-03-06T03:54:12;107.93;;;44.50;;
78183;SDS011;67442;44.570;18.610;2024-03-06T03:56:40;103.57;;;42.08;;
78183;SDS011;67442;44.570;18.610;2024-03-06T03:59:07;103.38;;;42.80;;
78183;SDS011;67442;44.570;18.610;2024-03-06T04:01:35;91.60;;;38.70;;
78183;SDS011;67442;44.570;18.610;2024-03-06T04:04:02;88.05;;;38.45;;
78183;SDS011;67442;44.570;18.610;2024-03-06T04:06:30;90.28;;;40.08;;
78183;SDS011;67442;44.570;18.610;2024-03-06T04:08:57;94.40;;;40.33;;
78183;SDS011;67442;44.570;18.610;2024-03-06T04:11:25;98.53;;;41.83;;
78183;SDS011;67442;44.570;18.610;2024-03-06T04:13:52;93.25;;;42.00;;
78183;SDS011;67442;44.570;18.610;2024-03-06T04:16:19;104.25;;;44.58;;
78183;SDS011;67442;44.570;18.610;2024-03-06T04:18:47;93.88;;;44.55;;
78183;SDS011;67442;44.570;18.610;2024-03-06T04:21:14;113.22;;;46.08;;
78183;SDS011;67442;44.570;18.610;2024-03-06T04:23:43;104.20;;;42.70;;
78183;SDS011;67442;44.570;18.610;2024-03-06T04:26:10;104.38;;;43.38;;
78183;SDS011;67442;44.570;18.610;2024-03-06T04:28:38;114.82;;;43.85;;
78183;SDS011;67442;44.570;18.610;2024-03-06T04:31:05;93.53;;;40.45;;
78183;SDS011;67442;44.570;18.610;2024-03-06T04:33:32;86.10;;;38.92;;
78183;SDS011;67442;44.570;18.610;2024-03-06T04:36:00;83.47;;;38.15;;
78183;SDS011;67442;44.570;18.610;2024-03-06T04:38:27;90.43;;;39.17;;
78183;SDS011;67442;44.570;18.610;2024-03-06T04:40:55;84.97;;;37.05;;
78183;SDS011;67442;44.570;18.610;2024-03-06T04:43:22;84.00;;;40.17;;
78183;SDS011;67442;44.570;18.610;2024-03-06T04:45:49;90.90;;;42.47;;
78183;SDS011;67442;44.570;18.610;2024-03-06T04:48:17;91.10;;;38.97;;
78183;SDS011;67442;44.570;18.610;2024-03-06T04:50:44;104.60;;;42.08;;
78183;SDS011;67442;44.570;18.610;2024-03-06T04:53:12;105.57;;;42.70;;
78183;SDS011;67442;44.570;18.610;2024-03-06T04:55:39;88.38;;;39.75;;
78183;SDS011;67442;44.570;18.610;2024-03-06T04:58:07;92.80;;;39.50;;
78183;SDS011;67442;44.570;18.610;2024-03-06T05:00:35;91.35;;;40.08;;
78183;SDS011;67442;44.570;18.610;2024-03-06T05:03:03;116.35;;;44.63;;
78183;SDS011;67442;44.570;18.610;2024-03-06T05:05:30;101.97;;;41.85;;
78183;SDS011;67442;44.570;18.610;2024-03-06T05:07:58;93.93;;;40.05;;
78183;SDS011;67442;44.570;18.610;2024-03-06T05:10:25;95.13;;;40.30;;
78183;SDS011;67442;44.570;18.610;2024-03-06T05:12:53;110.57;;;44.47;;
78183;SDS011;67442;44.570;18.610;2024-03-06T05:15:20;122.80;;;50.97;;
78183;SDS011;67442;44.570;18.610;2024-03-06T05:17:47;141.82;;;53.53;;
78183;SDS011;67442;44.570;18.610;2024-03-06T05:20:15;187.55;;;68.75;;
78183;SDS011;67442;44.570;18.610;2024-03-06T05:22:42;203.45;;;72.38;;
78183;SDS011;67442;44.570;18.610;2024-03-06T05:25:10;278.08;;;103.35;;
78183;SDS011;67442;44.570;18.610;2024-03-06T05:27:37;191.73;;;73.13;;
78183;SDS011;67442;44.570;18.610;2024-03-06T05:30:05;139.95;;;53.70;;
78183;SDS011;67442;44.570;18.610;2024-03-06T05:32:34;129.57;;;48.80;;
78183;SDS011;67442;44.570;18.610;2024-03-06T05:35:02;120.72;;;52.15;;
78183;SDS011;67442;44.570;18.610;2024-03-06T05:37:30;136.40;;;56.65;;
78183;SDS011;67442;44.570;18.610;2024-03-06T05:39:57;152.20;;;58.85;;
78183;SDS011;67442;44.570;18.610;2024-03-06T05:42:24;153.57;;;64.15;;
78183;SDS011;67442;44.570;18.610;2024-03-06T05:44:52;168.52;;;62.70;;
78183;SDS011;67442;44.570;18.610;2024-03-06T05:47:20;165.02;;;66.65;;
78183;SDS011;67442;44.570;18.610;2024-03-06T05:49:47;185.30;;;72.47;;
78183;SDS011;67442;44.570;18.610;2024-03-06T05:52:15;174.77;;;69.88;;
78183;SDS011;67442;44.570;18.610;2024-03-06T05:54:42;208.57;;;80.75;;
78183;SDS011;67442;44.570;18.610;2024-03-06T05:57:09;201.80;;;82.63;;
78183;SDS011;67442;44.570;18.610;2024-03-06T05:59:36;188.35;;;76.53;;
78183;SDS011;67442;44.570;18.610;2024-03-06T06:02:06;208.93;;;78.20;;
78183;SDS011;67442;44.570;18.610;2024-03-06T06:04:33;196.90;;;78.88;;
78183;SDS011;67442;44.570;18.610;2024-03-06T06:07:00;213.77;;;85.70;;
78183;SDS011;67442;44.570;18.610;2024-03-06T06:09:29;201.45;;;79.78;;
78183;SDS011;67442;44.570;18.610;2024-03-06T06:11:57;197.35;;;78.43;;
78183;SDS011;67442;44.570;18.610;2024-03-06T06:14:25;158.20;;;66.97;;
78183;SDS011;67442;44.570;18.610;2024-03-06T06:16:52;153.82;;;64.70;;
78183;SDS011;67442;44.570;18.610;2024-03-06T06:19:23;153.38;;;62.00;;
78183;SDS011;67442;44.570;18.610;2024-03-06T06:21:53;164.13;;;67.43;;
78183;SDS011;67442;44.570;18.610;2024-03-06T06:24:20;165.73;;;66.93;;
78183;SDS011;67442;44.570;18.610;2024-03-06T06:26:48;183.95;;;72.78;;
78183;SDS011;67442;44.570;18.610;2024-03-06T06:29:15;185.95;;;73.97;;
78183;SDS011;67442;44.570;18.610;2024-03-06T06:31:42;190.68;;;77.38;;
78183;SDS011;67442;44.570;18.610;2024-03-06T06:34:10;166.93;;;69.10;;
78183;SDS011;67442;44.570;18.610;2024-03-06T06:36:37;173.85;;;67.05;;
78183;SDS011;67442;44.570;18.610;2024-03-06T06:39:06;147.65;;;62.95;;
78183;SDS011;67442;44.570;18.610;2024-03-06T06:41:34;187.05;;;73.13;;
78183;SDS011;67442;44.570;18.610;2024-03-06T06:44:00;173.32;;;71.35;;
78183;SDS011;67442;44.570;18.610;2024-03-06T06:46:28;151.05;;;63.25;;
78183;SDS011;67442;44.570;18.610;2024-03-06T06:48:55;149.95;;;63.05;;
78183;SDS011;67442;44.570;18.610;2024-03-06T06:51:23;139.63;;;58.55;;
78183;SDS011;67442;44.570;18.610;2024-03-06T06:53:50;142.77;;;61.97;;
78183;SDS011;67442;44.570;18.610;2024-03-06T06:56:18;139.80;;;62.08;;
78183;SDS011;67442;44.570;18.610;2024-03-06T06:58:45;135.73;;;60.75;;
78183;SDS011;67442;44.570;18.610;2024-03-06T07:01:13;147.07;;;62.30;;
78183;SDS011;67442;44.570;18.610;2024-03-06T07:03:42;138.13;;;60.13;;
78183;SDS011;67442;44.570;18.610;2024-03-06T07:06:10;137.32;;;58.63;;
78183;SDS011;67442;44.570;18.610;2024-03-06T07:08:37;180.18;;;76.47;;
78183;SDS011;67442;44.570;18.610;2024-03-06T07:11:05;209.52;;;80.35;;
78183;SDS011;67442;44.570;18.610;2024-03-06T07:13:32;156.68;;;67.57;;
78183;SDS011;67442;44.570;18.610;2024-03-06T07:16:02;236.10;;;88.85;;
78183;SDS011;67442;44.570;18.610;2024-03-06T07:18:30;210.00;;;83.30;;
78183;SDS011;67442;44.570;18.610;2024-03-06T07:20:57;192.98;;;77.72;;
78183;SDS011;67442;44.570;18.610;2024-03-06T07:23:24;181.65;;;73.95;;
78183;SDS011;67442;44.570;18.610;2024-03-06T07:25:52;161.70;;;71.82;;
78183;SDS011;67442;44.570;18.610;2024-03-06T07:28:20;148.25;;;66.15;;
78183;SDS011;67442;44.570;18.610;2024-03-06T07:30:47;148.90;;;69.93;;
78183;SDS011;67442;44.570;18.610;2024-03-06T07:33:14;149.60;;;64.05;;
78183;SDS011;67442;44.570;18.610;2024-03-06T07:35:41;143.00;;;64.75;;
78183;SDS011;67442;44.570;18.610;2024-03-06T07:38:09;140.05;;;65.32;;
78183;SDS011;67442;44.570;18.610;2024-03-06T07:40:36;153.27;;;70.32;;
78183;SDS011;67442;44.570;18.610;2024-03-06T07:43:04;170.20;;;78.05;;
78183;SDS011;67442;44.570;18.610;2024-03-06T07:45:31;120.20;;;54.25;;
78183;SDS011;67442;44.570;18.610;2024-03-06T07:47:59;90.68;;;46.05;;
78183;SDS011;67442;44.570;18.610;2024-03-06T07:50:27;99.05;;;46.95;;
78183;SDS011;67442;44.570;18.610;2024-03-06T07:52:55;102.47;;;47.47;;
78183;SDS011;67442;44.570;18.610;2024-03-06T07:55:22;101.40;;;46.70;;
78183;SDS011;67442;44.570;18.610;2024-03-06T07:57:50;96.00;;;43.47;;
78183;SDS011;67442;44.570;18.610;2024-03-06T08:00:17;101.05;;;43.45;;
78183;SDS011;67442;44.570;18.610;2024-03-06T08:02:45;106.50;;;44.65;;
78183;SDS011;67442;44.570;18.610;2024-03-06T08:05:16;98.82;;;46.15;;
78183;SDS011;67442;44.570;18.610;2024-03-06T08:07:43;115.93;;;47.17;;
78183;SDS011;67442;44.570;18.610;2024-03-06T08:10:11;106.35;;;48.65;;
78183;SDS011;67442;44.570;18.610;2024-03-06T08:12:42;96.43;;;46.15;;
78183;SDS011;67442;44.570;18.610;2024-03-06T08:15:10;95.97;;;44.95;;
78183;SDS011;67442;44.570;18.610;2024-03-06T08:17:42;84.50;;;40.70;;
78183;SDS011;67442;44.570;18.610;2024-03-06T08:20:09;89.80;;;43.58;;
78183;SDS011;67442;44.570;18.610;2024-03-06T08:22:37;90.72;;;43.42;;
78183;SDS011;67442;44.570;18.610;2024-03-06T08:25:06;94.28;;;44.22;;
78183;SDS011;67442;44.570;18.610;2024-03-06T08:27:36;92.18;;;42.20;;
78183;SDS011;67442;44.570;18.610;2024-03-06T08:30:04;90.53;;;42.40;;
78183;SDS011;67442;44.570;18.610;2024-03-06T08:32:33;81.25;;;37.63;;
78183;SDS011;67442;44.570;18.610;2024-03-06T08:35:04;85.82;;;39.35;;
78183;SDS011;67442;44.570;18.610;2024-03-06T08:37:49;81.68;;;39.15;;
78183;SDS011;67442;44.570;18.610;2024-03-06T08:40:17;81.75;;;36.80;;
78183;SDS011;67442;44.570;18.610;2024-03-06T08:42:44;79.75;;;36.15;;
78183;SDS011;67442;44.570;18.610;2024-03-06T08:45:13;85.28;;;38.25;;
78183;SDS011;67442;44.570;18.610;2024-03-06T08:47:59;83.00;;;39.05;;
78183;SDS011;67442;44.570;18.610;2024-03-06T08:50:26;80.45;;;37.50;;
78183;SDS011;67442;44.570;18.610;2024-03-06T08:52:54;74.82;;;35.58;;
78183;SDS011;67442;44.570;18.610;2024-03-06T08:55:22;76.65;;;35.28;;
78183;SDS011;67442;44.570;18.610;2024-03-06T08:57:50;76.38;;;36.42;;
78183;SDS011;67442;44.570;18.610;2024-03-06T09:00:18;78.70;;;37.47;;
78183;SDS011;67442;44.570;18.610;2024-03-06T09:02:45;79.82;;;37.10;;
78183;SDS011;67442;44.570;18.610;2024-03-06T09:05:12;74.00;;;35.60;;
78183;SDS011;67442;44.570;18.610;2024-03-06T09:07:40;89.75;;;39.97;;
78183;SDS011;67442;44.570;18.610;2024-03-06T09:10:08;78.63;;;35.15;;
78183;SDS011;67442;44.570;18.610;2024-03-06T09:12:35;80.90;;;35.33;;
78183;SDS011;67442;44.570;18.610;2024-03-06T09:15:03;67.68;;;33.22;;
78183;SDS011;67442;44.570;18.610;2024-03-06T09:17:30;62.53;;;30.70;;
78183;SDS011;67442;44.570;18.610;2024-03-06T09:19:57;64.32;;;31.48;;
78183;SDS011;67442;44.570;18.610;2024-03-06T09:22:24;68.25;;;33.53;;
78183;SDS011;67442;44.570;18.610;2024-03-06T09:24:52;65.68;;;31.70;;
78183;SDS011;67442;44.570;18.610;2024-03-06T09:27:19;76.20;;;36.55;;
78183;SDS011;67442;44.570;18.610;2024-03-06T09:29:46;76.35;;;37.00;;
78183;SDS011;67442;44.570;18.610;2024-03-06T09:32:14;88.65;;;38.97;;
78183;SDS011;67442;44.570;18.610;2024-03-06T09:34:43;77.45;;;35.88;;
78183;SDS011;67442;44.570;18.610;2024-03-06T09:37:10;77.25;;;37.33;;
78183;SDS011;67442;44.570;18.610;2024-03-06T09:39:38;76.43;;;37.40;;
78183;SDS011;67442;44.570;18.610;2024-03-06T09:42:05;72.85;;;34.80;;
78183;SDS011;67442;44.570;18.610;2024-03-06T09:44:33;53.38;;;28.92;;
78183;SDS011;67442;44.570;18.610;2024-03-06T09:47:02;67.03;;;31.52;;
78183;SDS011;67442;44.570;18.610;2024-03-06T09:49:29;55.08;;;26.83;;
78183;SDS011;67442;44.570;18.610;2024-03-06T09:51:57;58.17;;;27.02;;
78183;SDS011;67442;44.570;18.610;2024-03-06T09:54:26;55.00;;;27.58;;
78183;SDS011;67442;44.570;18.610;2024-03-06T09:56:54;49.55;;;25.40;;
78183;SDS011;67442;44.570;18.610;2024-03-06T09:59:22;47.90;;;24.90;;
78183;SDS011;67442;44.570;18.610;2024-03-06T10:01:50;50.88;;;25.75;;
78183;SDS011;67442;44.570;18.610;2024-03-06T10:04:20;53.92;;;26.73;;
78183;SDS011;67442;44.570;18.610;2024-03-06T10:06:47;55.17;;;25.77;;
78183;SDS011;67442;44.570;18.610;2024-03-06T10:09:18;55.05;;;26.10;;
78183;SDS011;67442;44.570;18.610;2024-03-06T10:12:01;51.17;;;25.98;;
78183;SDS011;67442;44.570;18.610;2024-03-06T10:14:29;51.28;;;24.38;;
78183;SDS011;67442;44.570;18.610;2024-03-06T10:16:58;45.63;;;24.05;;
78183;SDS011;67442;44.570;18.610;2024-03-06T10:19:27;61.22;;;23.90;;
78183;SDS011;67442;44.570;18.610;2024-03-06T10:21:55;59.13;;;27.23;;
78183;SDS011;67442;44.570;18.610;2024-03-06T10:24:26;44.95;;;23.25;;
78183;SDS011;67442;44.570;18.610;2024-03-06T10:26:55;51.05;;;24.20;;
78183;SDS011;67442;44.570;18.610;2024-03-06T10:29:24;46.47;;;22.98;;
78183;SDS011;67442;44.570;18.610;2024-03-06T10:31:51;46.05;;;21.33;;
78183;SDS011;67442;44.570;18.610;2024-03-06T10:34:22;40.22;;;19.63;;
78183;SDS011;67442;44.570;18.610;2024-03-06T10:36:56;45.42;;;21.00;;
78183;SDS011;67442;44.570;18.610;2024-03-06T10:39:23;43.70;;;22.30;;
78183;SDS011;67442;44.570;18.610;2024-03-06T10:41:54;45.17;;;21.67;;
78183;SDS011;67442;44.570;18.610;2024-03-06T10:44:22;41.60;;;20.95;;
78183;SDS011;67442;44.570;18.610;2024-03-06T10:47:11;43.30;;;21.02;;
78183;SDS011;67442;44.570;18.610;2024-03-06T10:49:37;47.90;;;21.92;;
78183;SDS011;67442;44.570;18.610;2024-03-06T10:52:08;43.55;;;20.90;;
78183;SDS011;67442;44.570;18.610;2024-03-06T10:54:36;44.95;;;21.73;;
78183;SDS011;67442;44.570;18.610;2024-03-06T10:57:07;64.30;;;29.77;;
78183;SDS011;67442;44.570;18.610;2024-03-06T10:59:35;44.67;;;22.48;;
78183;SDS011;67442;44.570;18.610;2024-03-06T11:02:02;38.70;;;19.50;;
78183;SDS011;67442;44.570;18.610;2024-03-06T11:04:30;51.22;;;24.70;;
78183;SDS011;67442;44.570;18.610;2024-03-06T11:07:01;44.88;;;19.73;;
78183;SDS011;67442;44.570;18.610;2024-03-06T11:09:37;68.15;;;31.63;;
78183;SDS011;67442;44.570;18.610;2024-03-06T11:12:04;40.60;;;22.45;;
78183;SDS011;67442;44.570;18.610;2024-03-06T11:14:36;47.75;;;22.13;;
78183;SDS011;67442;44.570;18.610;2024-03-06T11:17:10;61.75;;;26.20;;
78183;SDS011;67442;44.570;18.610;2024-03-06T11:25:08;51.65;;;24.90;;
78183;SDS011;67442;44.570;18.610;2024-03-06T11:28:02;51.75;;;23.85;;
78183;SDS011;67442;44.570;18.610;2024-03-06T11:30:23;56.63;;;28.35;;
78183;SDS011;67442;44.570;18.610;2024-03-06T11:32:57;71.32;;;30.48;;
78183;SDS011;67442;44.570;18.610;2024-03-06T11:35:29;60.20;;;27.05;;
78183;SDS011;67442;44.570;18.610;2024-03-06T11:37:58;63.90;;;28.58;;
78183;SDS011;67442;44.570;18.610;2024-03-06T11:40:26;47.30;;;21.90;;
78183;SDS011;67442;44.570;18.610;2024-03-06T11:42:53;49.90;;;21.98;;
78183;SDS011;67442;44.570;18.610;2024-03-06T11:45:21;47.80;;;23.75;;
78183;SDS011;67442;44.570;18.610;2024-03-06T11:47:58;47.10;;;20.80;;
78183;SDS011;67442;44.570;18.610;2024-03-06T11:50:25;44.00;;;21.17;;
78183;SDS011;67442;44.570;18.610;2024-03-06T11:52:59;37.15;;;20.67;;
78183;SDS011;67442;44.570;18.610;2024-03-06T11:55:26;38.85;;;19.63;;
78183;SDS011;67442;44.570;18.610;2024-03-06T11:57:54;46.08;;;21.23;;
78183;SDS011;67442;44.570;18.610;2024-03-06T12:00:22;43.63;;;21.13;;
78183;SDS011;67442;44.570;18.610;2024-03-06T12:02:50;46.22;;;20.55;;
78183;SDS011;67442;44.570;18.610;2024-03-06T12:05:17;41.58;;;19.67;;
78183;SDS011;67442;44.570;18.610;2024-03-06T12:07:47;41.13;;;19.02;;
78183;SDS011;67442;44.570;18.610;2024-03-06T12:10:18;41.90;;;19.20;;
78183;SDS011;67442;44.570;18.610;2024-03-06T12:12:46;38.00;;;17.17;;
78183;SDS011;67442;44.570;18.610;2024-03-06T12:15:14;39.10;;;16.45;;
78183;SDS011;67442;44.570;18.610;2024-03-06T12:17:45;34.05;;;16.65;;
78183;SDS011;67442;44.570;18.610;2024-03-06T12:20:13;34.03;;;16.38;;
78183;SDS011;67442;44.570;18.610;2024-03-06T12:22:44;38.67;;;16.90;;
78183;SDS011;67442;44.570;18.610;2024-03-06T12:25:28;38.45;;;16.35;;
78183;SDS011;67442;44.570;18.610;2024-03-06T12:28:05;36.50;;;15.55;;
78183;SDS011;67442;44.570;18.610;2024-03-06T12:30:40;39.83;;;17.02;;
78183;SDS011;67442;44.570;18.610;2024-03-06T12:33:08;45.55;;;18.50;;
78183;SDS011;67442;44.570;18.610;2024-03-06T12:35:40;57.30;;;21.80;;
78183;SDS011;67442;44.570;18.610;2024-03-06T12:38:13;54.25;;;22.40;;
78183;SDS011;67442;44.570;18.610;2024-03-06T12:40:40;38.97;;;18.65;;
78183;SDS011;67442;44.570;18.610;2024-03-06T12:43:07;37.67;;;19.52;;
78183;SDS011;67442;44.570;18.610;2024-03-06T12:45:35;46.15;;;21.48;;
78183;SDS011;67442;44.570;18.610;2024-03-06T12:48:02;44.80;;;22.35;;
78183;SDS011;67442;44.570;18.610;2024-03-06T12:50:31;45.22;;;21.70;;
78183;SDS011;67442;44.570;18.610;2024-03-06T12:52:58;53.22;;;23.92;;
78183;SDS011;67442;44.570;18.610;2024-03-06T12:55:26;45.47;;;21.45;;
78183;SDS011;67442;44.570;18.610;2024-03-06T12:57:53;44.30;;;20.10;;
78183;SDS011;67442;44.570;18.610;2024-03-06T13:00:20;41.35;;;20.85;;
78183;SDS011;67442;44.570;18.610;2024-03-06T13:02:49;42.95;;;20.45;;
78183;SDS011;67442;44.570;18.610;2024-03-06T13:05:35;56.28;;;23.05;;
78183;SDS011;67442;44.570;18.610;2024-03-06T13:08:03;47.63;;;22.25;;
78183;SDS011;67442;44.570;18.610;2024-03-06T13:10:31;45.65;;;20.35;;
78183;SDS011;67442;44.570;18.610;2024-03-06T13:12:58;47.10;;;21.13;;
78183;SDS011;67442;44.570;18.610;2024-03-06T13:15:25;40.58;;;19.05;;
78183;SDS011;67442;44.570;18.610;2024-03-06T13:17:53;51.15;;;20.42;;
78183;SDS011;67442;44.570;18.610;2024-03-06T13:20:21;41.92;;;19.67;;
78183;SDS011;67442;44.570;18.610;2024-03-06T13:22:49;38.45;;;18.02;;
78183;SDS011;67442;44.570;18.610;2024-03-06T13:25:16;60.65;;;26.13;;
78183;SDS011;67442;44.570;18.610;2024-03-06T13:27:45;55.00;;;24.13;;
78183;SDS011;67442;44.570;18.610;2024-03-06T13:30:12;41.58;;;18.45;;
78183;SDS011;67442;44.570;18.610;2024-03-06T13:32:39;44.92;;;19.80;;
78183;SDS011;67442;44.570;18.610;2024-03-06T13:35:08;59.45;;;21.27;;
78183;SDS011;67442;44.570;18.610;2024-03-06T13:37:38;46.30;;;19.27;;
78183;SDS011;67442;44.570;18.610;2024-03-06T13:40:06;39.42;;;17.60;;
78183;SDS011;67442;44.570;18.610;2024-03-06T13:42:36;40.97;;;18.65;;
78183;SDS011;67442;44.570;18.610;2024-03-06T13:45:03;40.83;;;17.05;;
78183;SDS011;67442;44.570;18.610;2024-03-06T13:47:38;38.17;;;17.42;;
78183;SDS011;67442;44.570;18.610;2024-03-06T13:50:08;43.75;;;16.85;;
78183;SDS011;67442;44.570;18.610;2024-03-06T13:52:36;52.63;;;19.90;;
78183;SDS011;67442;44.570;18.610;2024-03-06T13:55:03;42.25;;;19.13;;
78183;SDS011;67442;44.570;18.610;2024-03-06T13:57:31;45.88;;;16.83;;
78183;SDS011;67442;44.570;18.610;2024-03-06T14:00:00;35.88;;;14.30;;
78183;SDS011;67442;44.570;18.610;2024-03-06T14:02:27;40.08;;;14.93;;
78183;SDS011;67442;44.570;18.610;2024-03-06T14:04:54;35.38;;;14.60;;
78183;SDS011;67442;44.570;18.610;2024-03-06T14:07:25;41.28;;;15.95;;
78183;SDS011;67442;44.570;18.610;2024-03-06T14:09:53;39.50;;;16.27;;
78183;SDS011;67442;44.570;18.610;2024-03-06T14:12:22;37.05;;;16.63;;
78183;SDS011;67442;44.570;18.610;2024-03-06T14:14:49;48.60;;;20.73;;